Time;durP1;ratioP1;P1;durP2;ratioP2;P2;SDS_P1;SDS_P2;PMS_P1;PMS_P2;Temp;Humidity;BMP_temperature;BMP_pressure;BME280_temperature;BME280_humidity;BME280_pressure;Samples;Min_cycle;Max_cycle;Signal;HPM_P1;HPM_P2
2022/11/30 00:00:48;;;;;;;273.15;36.97;;;3.40;99.90;;;;;;4938418;29;20051;-66
2022/11/30 00:03:14;;;;;;;315.00;36.53;;;3.40;99.90;;;;;;4955420;29;20066;-66
2022/11/30 00:05:40;;;;;;;286.48;33.15;;;3.40;99.90;;;;;;4922184;29;20121;-66
2022/11/30 00:08:06;;;;;;;220.30;30.52;;;3.30;99.90;;;;;;4937895;29;20075;-66
2022/11/30 00:10:31;;;;;;;99.85;18.98;;;3.30;99.90;;;;;;4938008;29;20090;-66
2022/11/30 00:12:57;;;;;;;85.00;13.23;;;3.10;99.90;;;;;;4954750;29;20046;-66
2022/11/30 00:15:23;;;;;;;46.28;9.75;;;3.10;99.90;;;;;;4954942;28;20051;-66
2022/11/30 00:17:49;;;;;;;64.13;13.25;;;3.00;99.90;;;;;;4954639;29;20065;-66
2022/11/30 00:20:15;;;;;;;161.95;20.67;;;3.00;99.90;;;;;;4954389;29;20047;-67
2022/11/30 00:22:41;;;;;;;185.05;28.17;;;2.90;99.90;;;;;;4954723;29;20093;-66
2022/11/30 00:25:08;;;;;;;401.33;48.40;;;2.80;99.90;;;;;;4954838;29;20386;-66
2022/11/30 00:27:34;;;;;;;108.65;19.05;;;2.80;99.90;;;;;;4954320;29;20043;-66
2022/11/30 00:30:00;;;;;;;45.75;11.18;;;2.70;99.90;;;;;;4954853;29;20441;-66
2022/11/30 00:32:27;;;;;;;429.75;59.13;;;2.70;99.90;;;;;;4937620;29;20135;-66
2022/11/30 00:34:53;;;;;;;155.70;26.70;;;2.60;99.90;;;;;;4937448;29;20043;-66
2022/11/30 00:37:19;;;;;;;289.10;40.25;;;2.70;99.90;;;;;;4954526;28;20043;-66
2022/11/30 00:39:45;;;;;;;165.05;25.05;;;2.70;99.90;;;;;;4937353;29;20086;-66
2022/11/30 00:42:11;;;;;;;41.45;12.48;;;2.70;99.90;;;;;;4936835;29;20087;-66
2022/11/30 00:44:36;;;;;;;235.40;34.72;;;2.70;99.90;;;;;;4954490;29;20050;-66
2022/11/30 00:47:03;;;;;;;83.03;17.75;;;2.70;99.90;;;;;;4954558;29;20043;-66
2022/11/30 00:49:29;;;;;;;178.68;25.08;;;2.70;99.90;;;;;;4937786;29;20043;-66
2022/11/30 00:51:55;;;;;;;220.63;28.15;;;2.60;99.90;;;;;;4937477;29;20512;-66
2022/11/30 00:54:21;;;;;;;489.40;65.38;;;2.60;99.90;;;;;;4920841;29;20039;-66
2022/11/30 00:56:46;;;;;;;244.65;31.25;;;2.70;99.90;;;;;;4953869;29;20053;-66
2022/11/30 00:59:12;;;;;;;127.88;23.52;;;2.70;99.90;;;;;;4921268;29;20066;-66
2022/11/30 01:01:38;;;;;;;181.55;28.60;;;2.70;99.90;;;;;;4954429;29;20103;-66
2022/11/30 01:04:04;;;;;;;183.88;25.50;;;2.80;99.90;;;;;;4954370;29;20047;-66
2022/11/30 01:06:30;;;;;;;220.02;31.25;;;2.80;99.90;;;;;;4937146;29;20043;-66
2022/11/30 01:08:57;;;;;;;169.85;26.35;;;2.90;99.90;;;;;;4953742;29;20134;-66
2022/11/30 01:11:28;;;;;;;170.52;28.30;;;3.00;99.90;;;;;;4936822;29;20102;-66
2022/11/30 01:13:55;;;;;;;150.70;27.77;;;3.10;99.90;;;;;;4940282;28;20106;-66
2022/11/30 01:16:26;;;;;;;73.90;21.13;;;3.10;99.90;;;;;;4955174;28;20533;-66
2022/11/30 01:18:52;;;;;;;51.20;21.67;;;3.20;99.90;;;;;;4954221;29;20059;-66
2022/11/30 01:21:23;;;;;;;76.63;26.10;;;3.30;99.90;;;;;;4936967;29;20458;-66
2022/11/30 01:23:49;;;;;;;36.22;16.30;;;3.40;99.90;;;;;;4953476;29;20093;-66
2022/11/30 01:26:16;;;;;;;38.78;18.20;;;3.40;99.90;;;;;;4936638;29;20770;-66
2022/11/30 01:28:45;;;;;;;62.05;22.48;;;3.50;99.90;;;;;;4953779;29;20043;-66
2022/11/30 01:31:12;;;;;;;53.05;20.77;;;3.60;99.90;;;;;;4936747;29;20055;-66
2022/11/30 01:33:39;;;;;;;73.18;25.30;;;3.60;99.90;;;;;;4953886;29;20030;-66
2022/11/30 01:36:14;;;;;;;52.25;21.58;;;3.70;99.90;;;;;;4953666;29;20389;-66
2022/11/30 01:38:43;;;;;;;42.40;20.38;;;3.70;99.90;;;;;;4936140;29;20050;-66
2022/11/30 01:41:11;;;;;;;30.42;16.17;;;3.70;99.90;;;;;;4936399;29;20079;-66
2022/11/30 01:43:38;;;;;;;41.30;20.00;;;3.80;99.90;;;;;;4936360;29;20047;-66
2022/11/30 01:46:16;;;;;;;38.90;18.08;;;3.80;99.90;;;;;;4936657;29;20058;-66
2022/11/30 01:48:43;;;;;;;35.55;19.02;;;3.80;99.90;;;;;;4953268;29;20118;-66
2022/11/30 01:51:10;;;;;;;56.05;22.63;;;3.90;99.90;;;;;;4935321;29;20051;-66
2022/11/30 01:53:37;;;;;;;44.30;19.15;;;3.90;99.90;;;;;;4952669;29;20031;-66
2022/11/30 01:56:05;;;;;;;47.20;20.00;;;3.90;99.90;;;;;;4953281;29;20071;-66
2022/11/30 01:58:35;;;;;;;49.80;22.23;;;3.90;99.90;;;;;;4936214;29;20043;-66
2022/11/30 02:01:05;;;;;;;26.67;15.50;;;4.00;99.90;;;;;;4935927;29;20046;-66
2022/11/30 02:03:59;;;;;;;30.70;16.33;;;4.00;99.90;;;;;;4952894;29;20074;-66
2022/11/30 02:06:33;;;;;;;40.53;19.30;;;4.00;99.90;;;;;;4919715;29;20090;-66
2022/11/30 02:09:03;;;;;;;41.22;20.65;;;4.10;99.90;;;;;;4952296;29;20501;-66
2022/11/30 02:11:31;;;;;;;;;;;4.10;99.90;;;;;;4953603;29;20062;-66
2022/11/30 02:14:12;;;;;;;65.25;23.10;;;4.20;99.90;;;;;;4952762;29;19918;-66
2022/11/30 02:16:51;;;;;;;64.97;25.75;;;4.20;99.90;;;;;;4934750;29;20473;-66
2022/11/30 02:19:32;;;;;;;82.53;25.02;;;4.30;99.90;;;;;;4951970;29;20121;-66
2022/11/30 02:22:19;;;;;;;45.90;20.77;;;4.30;99.90;;;;;;4952002;29;20487;-66
2022/11/30 02:25:24;;;;;;;50.78;21.45;;;4.30;99.90;;;;;;4921822;29;20798;-66
2022/11/30 02:27:51;;;;;;;700.00;79.25;;;4.20;99.90;;;;;;4935666;29;20051;-66
2022/11/30 02:30:21;;;;;;;368.23;47.47;;;4.20;99.90;;;;;;4919777;29;20433;-66
2022/11/30 02:32:52;;;;;;;153.13;32.53;;;4.10;99.90;;;;;;4952146;29;20653;-66
2022/11/30 02:35:23;;;;;;;366.00;45.63;;;4.00;99.90;;;;;;4933971;29;20516;-66
2022/11/30 02:37:51;;;;;;;47.53;18.42;;;4.00;99.90;;;;;;4935395;29;20039;-66
2022/11/30 02:40:18;;;;;;;114.50;29.95;;;3.90;99.90;;;;;;4919893;29;20043;-66
2022/11/30 02:42:44;;;;;;;58.75;22.20;;;3.80;99.90;;;;;;4952516;29;20046;-66
2022/11/30 02:45:11;;;;;;;42.97;19.75;;;3.70;99.90;;;;;;4935132;29;20098;-66
2022/11/30 02:48:03;;;;;;;410.13;50.08;;;3.60;99.90;;;;;;4952666;29;20099;-66
2022/11/30 02:51:01;;;;;;;40.88;18.10;;;3.60;99.90;;;;;;4952540;29;20046;-66
2022/11/30 02:53:27;;;;;;;31.75;15.45;;;3.50;99.90;;;;;;4948031;29;20409;-66
2022/11/30 02:55:53;;;;;;;84.15;28.40;;;3.50;99.90;;;;;;4952802;29;20043;-66
2022/11/30 02:58:20;;;;;;;84.10;25.52;;;3.50;99.90;;;;;;4952890;29;20097;-66
2022/11/30 03:00:46;;;;;;;52.40;18.38;;;3.50;99.90;;;;;;4952886;29;20043;-66
2022/11/30 03:03:12;;;;;;;83.10;20.35;;;3.50;99.90;;;;;;4935732;29;20363;-66
2022/11/30 03:05:37;;;;;;;59.83;21.95;;;3.50;99.90;;;;;;4934859;29;20051;-66
2022/11/30 03:08:03;;;;;;;294.30;39.40;;;3.50;99.90;;;;;;4935499;29;20040;-66
2022/11/30 03:10:29;;;;;;;87.18;24.02;;;3.50;99.90;;;;;;4952489;29;20109;-66
2022/11/30 03:12:59;;;;;;;85.68;23.80;;;3.50;99.90;;;;;;4952746;29;20097;-67
2022/11/30 03:15:25;;;;;;;61.07;20.73;;;3.40;99.90;;;;;;4919595;29;20624;-66
2022/11/30 03:17:50;;;;;;;44.80;18.48;;;3.40;99.90;;;;;;4952350;28;20321;-66
2022/11/30 03:20:17;;;;;;;36.42;14.63;;;3.30;99.90;;;;;;4951906;29;20062;-66
2022/11/30 03:22:43;;;;;;;85.68;22.58;;;3.30;99.90;;;;;;4952488;29;20077;-66
2022/11/30 03:25:09;;;;;;;454.58;52.05;;;3.30;99.90;;;;;;4935045;29;20043;-67
2022/11/30 03:27:35;;;;;;;51.70;18.60;;;3.20;99.90;;;;;;4952209;29;20047;-66
2022/11/30 03:30:01;;;;;;;39.22;15.38;;;3.20;99.90;;;;;;4952354;29;20098;-66
2022/11/30 03:32:26;;;;;;;54.97;16.85;;;3.10;99.90;;;;;;4919592;29;20064;-67
2022/11/30 03:34:52;;;;;;;64.85;20.25;;;3.10;99.90;;;;;;4918919;29;20077;-66
2022/11/30 03:37:18;;;;;;;142.30;29.17;;;3.10;99.90;;;;;;4919118;29;20057;-66
2022/11/30 03:39:44;;;;;;;147.80;25.63;;;3.00;99.90;;;;;;4934863;29;20039;-67
2022/11/30 03:42:09;;;;;;;357.20;41.75;;;3.00;99.90;;;;;;4952387;29;20047;-67
2022/11/30 03:44:35;;;;;;;303.77;30.25;;;3.00;99.90;;;;;;4952162;29;20052;-66
2022/11/30 03:47:01;;;;;;;460.65;45.50;;;3.00;99.90;;;;;;4952235;28;20043;-66
2022/11/30 03:49:27;;;;;;;214.77;24.70;;;3.00;99.90;;;;;;4934786;29;20053;-67
2022/11/30 03:51:52;;;;;;;263.45;29.88;;;2.90;99.90;;;;;;4935138;29;20417;-67
2022/11/30 03:54:18;;;;;;;212.23;27.45;;;2.90;99.90;;;;;;4952122;29;20565;-67
2022/11/30 03:56:44;;;;;;;321.58;35.92;;;2.80;99.90;;;;;;4934885;29;20043;-67
2022/11/30 03:59:09;;;;;;;134.02;17.42;;;2.80;99.90;;;;;;4952133;29;20035;-66
2022/11/30 04:01:35;;;;;;;88.40;12.20;;;2.70;99.90;;;;;;4952042;29;20078;-66
2022/11/30 04:04:01;;;;;;;234.77;28.23;;;2.60;99.90;;;;;;4934255;29;20047;-67
2022/11/30 04:06:27;;;;;;;152.82;21.48;;;2.60;99.90;;;;;;4918992;29;20043;-67
2022/11/30 04:08:53;;;;;;;293.88;36.22;;;2.50;99.90;;;;;;4934602;29;20049;-67
2022/11/30 04:11:19;;;;;;;168.30;27.73;;;2.40;99.90;;;;;;4934925;29;20046;-67
2022/11/30 04:13:44;;;;;;;131.50;26.77;;;2.40;99.90;;;;;;4933907;29;20050;-67
2022/11/30 04:16:10;;;;;;;90.03;16.73;;;2.40;99.90;;;;;;4934068;29;20062;-66
2022/11/30 04:18:36;;;;;;;49.03;14.43;;;2.30;99.90;;;;;;4951032;29;20106;-67
2022/11/30 04:21:03;;;;;;;25.15;8.80;;;2.30;99.90;;;;;;4934652;29;20047;-68
2022/11/30 04:23:32;;;;;;;100.38;21.25;;;2.30;99.90;;;;;;4951611;28;20082;-67
2022/11/30 04:25:58;;;;;;;98.75;23.60;;;2.20;99.90;;;;;;4951827;29;20074;-67
2022/11/30 04:28:24;;;;;;;25.75;10.35;;;2.30;99.90;;;;;;4951724;28;20078;-67
2022/11/30 04:30:51;;;;;;;73.30;15.13;;;2.20;99.90;;;;;;4922101;29;20058;-67
2022/11/30 04:33:17;;;;;;;151.93;21.98;;;2.20;99.90;;;;;;4954852;29;20124;-67
2022/11/30 04:35:47;;;;;;;45.50;10.73;;;2.20;99.90;;;;;;4955317;29;20078;-67
2022/11/30 04:38:13;;;;;;;41.33;13.90;;;2.10;99.90;;;;;;4938287;29;20047;-67
2022/11/30 04:40:42;;;;;;;43.47;13.80;;;2.10;99.90;;;;;;4937861;29;20545;-67
2022/11/30 04:43:09;;;;;;;40.50;14.65;;;2.10;99.90;;;;;;4955310;29;20047;-67
2022/11/30 04:45:35;;;;;;;134.65;27.67;;;2.10;99.90;;;;;;4955183;29;20114;-67
2022/11/30 04:48:02;;;;;;;56.65;14.40;;;2.20;99.90;;;;;;4937385;29;20043;-67
2022/11/30 04:50:28;;;;;;;113.70;24.75;;;2.20;99.90;;;;;;4954934;29;20039;-67
2022/11/30 04:52:54;;;;;;;108.90;22.98;;;2.20;99.90;;;;;;4955018;29;20058;-67
2022/11/30 04:55:19;;;;;;;71.43;16.45;;;2.20;99.90;;;;;;4937747;29;20051;-67
2022/11/30 04:57:46;;;;;;;121.13;25.75;;;2.20;99.90;;;;;;4937891;29;20051;-67
2022/11/30 05:00:14;;;;;;;82.60;16.55;;;2.20;99.90;;;;;;4937666;29;20079;-67
2022/11/30 05:02:39;;;;;;;169.77;29.77;;;2.30;99.90;;;;;;4937048;29;20046;-67
2022/11/30 05:05:06;;;;;;;279.23;40.47;;;2.30;99.90;;;;;;4954712;29;20062;-67
2022/11/30 05:07:31;;;;;;;141.02;24.95;;;2.30;99.90;;;;;;4954765;28;20069;-67
2022/11/30 05:09:59;;;;;;;137.82;31.05;;;2.30;99.90;;;;;;4937475;29;20043;-67
2022/11/30 05:12:25;;;;;;;82.75;21.17;;;2.30;99.90;;;;;;4937718;29;20394;-67
2022/11/30 05:14:50;;;;;;;56.90;18.52;;;2.40;99.90;;;;;;4954569;29;20043;-67
2022/11/30 05:17:16;;;;;;;33.92;14.27;;;2.40;99.90;;;;;;4954002;29;20055;-66
2022/11/30 05:19:42;;;;;;;79.65;22.80;;;2.50;99.90;;;;;;4937205;29;20054;-67
2022/11/30 05:22:08;;;;;;;67.05;21.23;;;2.50;99.90;;;;;;4954757;29;20070;-67
2022/11/30 05:24:34;;;;;;;41.88;16.75;;;2.50;99.90;;;;;;4937316;29;20043;-67
2022/11/30 05:26:59;;;;;;;63.60;20.17;;;2.50;99.90;;;;;;4936982;29;20054;-67
2022/11/30 05:29:25;;;;;;;114.82;23.90;;;2.50;99.90;;;;;;4954405;29;20155;-67
2022/11/30 05:31:51;;;;;;;190.63;34.90;;;2.60;99.90;;;;;;4953909;29;20047;-67
2022/11/30 05:34:17;;;;;;;124.65;27.13;;;2.70;99.90;;;;;;4936952;29;20047;-67
2022/11/30 05:36:42;;;;;;;83.43;22.20;;;2.80;99.90;;;;;;4937083;29;20081;-67
2022/11/30 05:39:08;;;;;;;128.55;29.63;;;2.80;99.90;;;;;;4937007;29;20051;-67
2022/11/30 05:41:34;;;;;;;269.10;45.40;;;2.90;99.90;;;;;;4954185;28;20039;-67
2022/11/30 05:44:00;;;;;;;95.22;28.80;;;3.00;99.90;;;;;;4954088;29;20047;-67
2022/11/30 05:46:25;;;;;;;117.60;33.35;;;3.10;99.90;;;;;;4936311;29;20051;-66
2022/11/30 05:48:51;;;;;;;104.97;32.70;;;3.20;99.90;;;;;;4936808;29;20047;-67
2022/11/30 05:51:19;;;;;;;135.23;34.47;;;3.20;99.90;;;;;;4954013;29;20031;-67
2022/11/30 05:53:45;;;;;;;79.15;26.80;;;3.30;99.90;;;;;;4954209;29;20045;-67
2022/11/30 05:56:19;;;;;;;97.45;29.33;;;3.40;99.90;;;;;;4936466;29;20050;-67
2022/11/30 05:58:46;;;;;;;181.23;40.92;;;3.40;99.90;;;;;;4953855;29;20482;-67
2022/11/30 06:01:27;;;;;;;166.90;37.53;;;3.50;99.90;;;;;;4953187;29;20047;-67
2022/11/30 06:03:52;;;;;;;;;;;3.50;99.90;;;;;;4954363;29;20259;-67
2022/11/30 06:06:19;;;;;;;124.95;31.55;;;3.50;99.90;;;;;;4936646;29;20025;-67
2022/11/30 06:08:46;;;;;;;102.93;29.05;;;3.60;99.90;;;;;;4953671;28;20039;-67
2022/11/30 06:11:14;;;;;;;62.40;25.17;;;3.70;99.90;;;;;;4935869;29;20065;-67
2022/11/30 06:13:40;;;;;;;125.43;36.40;;;3.70;99.90;;;;;;4935130;29;20107;-66
2022/11/30 06:16:07;;;;;;;152.45;37.30;;;3.70;99.90;;;;;;4919204;29;20055;-66
2022/11/30 06:18:33;;;;;;;95.00;29.40;;;3.70;99.90;;;;;;4952921;29;20047;-67
2022/11/30 06:21:07;;;;;;;57.45;23.15;;;3.80;99.90;;;;;;4953162;29;20043;-67
2022/11/30 06:23:33;;;;;;;106.47;30.27;;;3.80;99.90;;;;;;4936155;29;20062;-66
2022/11/30 06:26:03;;;;;;;84.13;27.33;;;3.80;99.90;;;;;;4935924;29;20043;-66
2022/11/30 06:28:29;;;;;;;;;;;3.80;99.90;;;;;;4935836;29;20051;-66
2022/11/30 06:31:04;;;;;;;101.13;28.48;;;3.80;99.90;;;;;;4936056;29;20365;-67
2022/11/30 06:33:30;;;;;;;92.22;29.17;;;3.80;99.90;;;;;;4953486;29;20078;-67
2022/11/30 06:35:56;;;;;;;141.63;35.63;;;3.80;99.90;;;;;;4936013;29;20043;-67
2022/11/30 06:38:23;;;;;;;72.05;26.88;;;3.90;99.90;;;;;;4953073;28;20374;-66
2022/11/30 06:40:49;;;;;;;91.05;28.30;;;3.90;99.90;;;;;;4953098;29;20123;-66
2022/11/30 06:43:15;;;;;;;82.07;29.25;;;3.90;99.90;;;;;;4952399;29;20593;-67
2022/11/30 06:45:44;;;;;;;70.50;26.90;;;4.00;99.90;;;;;;4935692;29;20126;-67
2022/11/30 06:48:11;;;;;;;73.27;25.43;;;4.00;99.90;;;;;;4952952;29;20541;-67
2022/11/30 06:50:37;;;;;;;83.72;26.70;;;4.10;99.90;;;;;;4935982;29;20438;-67
2022/11/30 06:53:03;;;;;;;62.95;24.63;;;4.10;99.90;;;;;;4919510;29;20042;-67
2022/11/30 06:55:31;;;;;;;69.45;25.90;;;4.10;99.90;;;;;;4952747;29;20039;-67
2022/11/30 06:58:07;;;;;;;78.90;27.25;;;4.00;99.90;;;;;;4952490;29;20054;-67
2022/11/30 07:00:34;;;;;;;100.50;29.63;;;3.90;99.90;;;;;;4935758;29;20430;-67
2022/11/30 07:02:59;;;;;;;55.25;23.73;;;3.90;99.90;;;;;;4935750;29;20081;-67
2022/11/30 07:05:25;;;;;;;77.57;25.90;;;3.90;99.90;;;;;;4952625;29;20119;-67
2022/11/30 07:07:51;;;;;;;74.38;26.35;;;3.90;99.90;;;;;;4952606;29;20366;-67
2022/11/30 07:10:17;;;;;;;78.20;27.05;;;3.80;99.90;;;;;;4952494;29;20046;-67
2022/11/30 07:12:44;;;;;;;72.60;27.77;;;3.80;99.90;;;;;;4934952;29;20406;-67
2022/11/30 07:15:10;;;;;;;73.28;27.48;;;3.80;99.90;;;;;;4935396;29;20061;-67
2022/11/30 07:17:36;;;;;;;69.43;26.00;;;3.80;99.90;;;;;;4952737;29;20122;-67
2022/11/30 07:20:02;;;;;;;110.43;31.13;;;3.80;99.90;;;;;;4935261;29;20158;-67
2022/11/30 07:22:27;;;;;;;74.38;24.95;;;3.90;99.90;;;;;;4935480;29;20051;-67
2022/11/30 07:27:37;;;;;;;92.05;27.45;;;3.90;99.90;;;;;;4952050;29;20047;-67
2022/11/30 07:30:04;;;;;;;79.72;27.70;;;4.00;99.90;;;;;;4952332;29;20560;-66
2022/11/30 07:32:29;;;;;;;57.20;25.02;;;3.90;99.90;;;;;;4935168;29;20075;-66
2022/11/30 07:34:55;;;;;;;97.88;29.23;;;4.00;99.90;;;;;;4952415;29;20082;-67
2022/11/30 07:37:21;;;;;;;86.97;29.48;;;4.00;99.90;;;;;;4951967;29;20050;-67
2022/11/30 07:39:46;;;;;;;57.35;22.77;;;4.00;99.90;;;;;;4935185;29;20043;-67
2022/11/30 07:42:12;;;;;;;94.68;31.77;;;4.00;99.90;;;;;;4934626;29;20133;-67
2022/11/30 07:44:38;;;;;;;86.85;29.10;;;4.00;99.90;;;;;;4934912;29;20055;-66
2022/11/30 07:47:04;;;;;;;112.00;33.67;;;4.10;99.90;;;;;;4935056;29;20047;-66
2022/11/30 07:49:29;;;;;;;68.70;24.58;;;4.10;99.90;;;;;;4952070;29;20195;-66
2022/11/30 07:51:55;;;;;;;57.92;23.88;;;4.10;99.90;;;;;;4934908;29;20050;-66
2022/11/30 07:54:21;;;;;;;80.30;28.13;;;4.20;99.90;;;;;;4919092;29;20043;-66
2022/11/30 07:56:47;;;;;;;64.13;27.75;;;4.20;99.90;;;;;;4951580;29;20118;-67
2022/11/30 07:59:12;;;;;;;74.35;27.98;;;4.20;99.90;;;;;;4935059;29;20043;-67
2022/11/30 08:01:38;;;;;;;60.78;25.77;;;4.30;99.90;;;;;;4934827;29;20047;-67
2022/11/30 08:04:04;;;;;;;82.47;30.48;;;4.30;99.90;;;;;;4952967;28;20043;-67
2022/11/30 08:06:30;;;;;;;62.78;26.40;;;4.40;99.90;;;;;;4943824;28;20043;-67
2022/11/30 08:09:02;;;;;;;52.67;24.10;;;4.50;99.90;;;;;;4963721;28;20092;-67
2022/11/30 08:11:32;;;;;;;64.05;25.92;;;4.50;99.90;;;;;;4918050;29;20082;-67
2022/11/30 08:13:59;;;;;;;99.45;33.75;;;4.60;99.90;;;;;;4935753;29;20099;-67
2022/11/30 08:16:27;;;;;;;59.97;23.48;;;4.60;99.90;;;;;;4936223;29;20395;-67
2022/11/30 08:18:57;;;;;;;42.80;21.15;;;4.70;99.90;;;;;;4936217;29;20501;-66
2022/11/30 08:21:23;;;;;;;47.10;21.63;;;4.70;99.90;;;;;;4935887;29;20040;-67
2022/11/30 08:23:55;;;;;;;66.18;23.60;;;4.80;99.90;;;;;;4919093;29;20508;-66
2022/11/30 08:26:27;;;;;;;82.78;30.05;;;4.80;99.90;;;;;;4936357;29;20052;-67
2022/11/30 08:28:53;;;;;;;95.10;32.20;;;4.90;99.90;;;;;;4936444;29;20028;-67
2022/11/30 08:31:30;;;;;;;88.18;30.92;;;4.90;99.90;;;;;;4918984;29;20506;-66
2022/11/30 08:34:02;;;;;;;78.88;40.25;;;5.00;99.90;;;;;;4919390;29;20181;-67
2022/11/30 08:36:29;;;;;;;139.77;54.13;;;5.00;99.90;;;;;;4936300;29;20123;-67
2022/11/30 08:38:57;;;;;;;127.40;59.58;;;5.10;99.90;;;;;;4902887;29;20055;-67
2022/11/30 08:41:23;;;;;;;139.52;66.25;;;5.10;99.90;;;;;;4919140;29;20102;-66
2022/11/30 08:43:50;;;;;;;159.30;72.63;;;5.20;99.90;;;;;;4935868;29;20070;-67
2022/11/30 08:46:18;;;;;;;144.85;64.80;;;5.30;99.90;;;;;;4918965;29;20085;-67
2022/11/30 08:48:44;;;;;;;127.35;57.97;;;5.30;99.90;;;;;;4918780;29;20047;-67
2022/11/30 08:51:13;;;;;;;127.15;50.72;;;5.50;99.90;;;;;;4918728;29;20054;-67
2022/11/30 08:53:39;;;;;;;156.80;52.30;;;5.50;99.90;;;;;;4935677;29;20035;-67
2022/11/30 08:56:12;;;;;;;123.53;41.70;;;5.70;99.90;;;;;;4918709;29;20090;-67
2022/11/30 08:58:39;;;;;;;147.75;47.60;;;5.90;99.90;;;;;;4903073;29;20051;-67
2022/11/30 09:01:20;;;;;;;106.43;39.65;;;6.30;99.90;;;;;;4935685;29;20486;-67
2022/11/30 09:03:48;;;;;;;101.70;38.42;;;6.80;99.90;;;;;;4918943;29;20043;-67
2022/11/30 09:06:23;;;;;;;82.95;33.28;;;7.10;99.90;;;;;;4918764;29;20052;-67
2022/11/30 09:08:50;;;;;;;60.45;26.90;;;7.40;99.90;;;;;;4934972;29;20482;-66
2022/11/30 09:11:20;;;;;;;46.78;25.17;;;7.80;99.90;;;;;;4935393;29;20490;-67
2022/11/30 09:13:47;;;;;;;51.28;23.80;;;7.90;99.90;;;;;;4935666;29;20040;-67
2022/11/30 09:16:14;;;;;;;38.78;22.38;;;7.90;99.90;;;;;;4917899;29;20144;-67
2022/11/30 09:18:40;;;;;;;43.72;21.23;;;7.80;99.90;;;;;;4918309;29;20118;-67
2022/11/30 09:21:12;;;;;;;45.50;22.85;;;7.70;99.90;;;;;;4918696;29;20134;-67
2022/11/30 09:23:38;;;;;;;44.35;23.00;;;7.60;99.90;;;;;;4934967;29;20043;-67
2022/11/30 09:26:07;;;;;;;39.88;24.05;;;7.60;99.90;;;;;;4935351;29;20044;-67
2022/11/30 09:28:34;;;;;;;49.00;24.98;;;7.60;99.90;;;;;;4935293;29;20102;-66
2022/11/30 09:31:11;;;;;;;50.60;25.52;;;7.60;99.90;;;;;;4918043;29;20107;-66
2022/11/30 09:33:37;;;;;;;58.33;27.20;;;7.50;99.90;;;;;;4935514;29;20039;-66
2022/11/30 09:36:08;;;;;;;50.65;25.58;;;7.40;99.90;;;;;;4935050;29;20549;-66
2022/11/30 09:38:35;;;;;;;62.80;28.27;;;7.30;99.90;;;;;;4917864;29;20083;-66
2022/11/30 09:41:12;;;;;;;51.08;27.48;;;7.30;99.90;;;;;;4918019;29;20043;-66
2022/11/30 09:44:15;;;;;;;73.00;29.55;;;7.20;99.90;;;;;;4935082;29;20048;-66
2022/11/30 09:46:54;;;;;;;52.70;27.08;;;7.10;99.90;;;;;;4917874;29;20052;-66
2022/11/30 09:49:39;;;;;;;68.55;29.73;;;7.10;99.90;;;;;;4917847;29;20048;-66
2022/11/30 09:52:12;;;;;;;81.65;32.78;;;7.00;99.90;;;;;;4917493;29;20171;-66
2022/11/30 09:54:42;;;;;;;79.88;32.95;;;7.00;99.90;;;;;;4917639;29;20067;-66
2022/11/30 09:57:11;;;;;;;;;;;6.90;99.90;;;;;;4935187;29;20189;-67
2022/11/30 09:59:37;;;;;;;80.28;32.40;;;7.00;99.90;;;;;;4917603;29;20055;-66
2022/11/30 10:02:17;;;;;;;58.05;29.38;;;7.00;99.90;;;;;;4902009;29;20044;-66
2022/11/30 10:04:43;;;;;;;60.65;29.85;;;7.00;99.90;;;;;;4917330;29;20047;-66
2022/11/30 10:07:44;;;;;;;58.80;28.38;;;7.00;99.90;;;;;;4933031;29;20062;-67
2022/11/30 10:10:47;;;;;;;63.30;29.30;;;7.00;99.90;;;;;;4917084;29;20051;-67
2022/11/30 10:13:26;;;;;;;64.25;27.88;;;7.00;99.90;;;;;;4917245;29;20044;-67
2022/11/30 10:16:19;;;;;;;67.70;29.77;;;7.00;99.90;;;;;;4934242;29;20083;-66
2022/11/30 10:18:48;;;;;;;57.80;28.45;;;7.00;99.90;;;;;;4934330;29;20118;-66
2022/11/30 10:21:41;;;;;;;64.78;28.83;;;7.00;99.90;;;;;;4916662;29;20491;-66
2022/11/30 10:24:14;;;;;;;69.13;30.85;;;7.10;99.90;;;;;;4933693;29;20126;-67
2022/11/30 10:26:51;;;;;;;69.63;31.48;;;7.10;99.90;;;;;;4935406;29;20151;-66
2022/11/30 10:29:28;;;;;;;65.13;31.67;;;7.20;99.90;;;;;;4953184;29;20500;-66
2022/11/30 10:31:58;;;;;;;71.47;30.90;;;7.30;99.90;;;;;;4953277;29;20046;-66
2022/11/30 10:34:32;;;;;;;61.40;29.83;;;7.40;99.90;;;;;;4935672;29;20047;-66
2022/11/30 10:37:11;;;;;;;58.72;28.25;;;7.50;99.90;;;;;;4953203;29;20299;-66
2022/11/30 10:39:55;;;;;;;50.72;26.23;;;7.60;99.90;;;;;;4936192;29;20051;-66
2022/11/30 10:42:28;;;;;;;55.00;28.02;;;7.70;99.90;;;;;;4920004;29;20058;-66
2022/11/30 10:45:11;;;;;;;46.72;25.95;;;7.70;99.90;;;;;;4935753;29;20044;-66
2022/11/30 10:47:52;;;;;;;48.97;25.50;;;7.70;99.90;;;;;;4935690;29;20496;-66
2022/11/30 10:50:21;;;;;;;53.35;27.48;;;7.70;99.90;;;;;;4935441;29;20043;-66
2022/11/30 10:52:51;;;;;;;51.22;26.40;;;7.70;99.90;;;;;;4949876;29;20043;-66
2022/11/30 10:55:26;;;;;;;53.25;28.33;;;7.60;99.90;;;;;;4929383;29;20118;-66
2022/11/30 10:58:19;;;;;;;53.75;29.17;;;7.60;99.90;;;;;;4938117;28;20102;-66
2022/11/30 11:00:53;;;;;;;55.78;25.92;;;7.60;99.90;;;;;;4910551;29;20398;-66
2022/11/30 11:03:23;;;;;;;54.13;26.67;;;7.60;99.90;;;;;;4949249;29;20176;-66
2022/11/30 11:06:07;;;;;;;55.13;26.20;;;7.60;99.90;;;;;;4934990;29;20494;-66
2022/11/30 11:08:33;;;;;;;56.67;27.83;;;7.60;99.90;;;;;;4952445;29;20042;-66
2022/11/30 11:10:58;;;;;;;54.25;27.75;;;7.60;99.90;;;;;;4934956;29;20126;-66
2022/11/30 11:13:37;;;;;;;58.35;29.55;;;7.60;99.90;;;;;;4934236;29;20119;-66
2022/11/30 11:16:04;;;;;;;57.30;28.70;;;7.60;99.90;;;;;;4934984;29;20053;-66
2022/11/30 11:18:32;;;;;;;54.70;29.35;;;7.60;99.90;;;;;;4934616;29;20102;-66
2022/11/30 11:21:02;;;;;;;58.58;28.45;;;7.60;99.90;;;;;;4951978;29;20393;-67
2022/11/30 11:23:38;;;;;;;56.03;29.10;;;7.60;99.90;;;;;;4935201;29;20118;-66
2022/11/30 11:26:23;;;;;;;60.47;29.63;;;7.70;99.90;;;;;;4935097;29;20039;-67
2022/11/30 11:28:52;;;;;;;51.20;27.25;;;7.80;99.90;;;;;;4934950;29;20542;-66
2022/11/30 11:31:43;;;;;;;47.53;25.85;;;7.90;99.90;;;;;;4934968;29;20039;-66
2022/11/30 11:34:24;;;;;;;46.28;26.38;;;8.00;99.90;;;;;;4934595;29;20046;-66
2022/11/30 11:37:13;;;;;;;46.35;26.10;;;8.00;99.90;;;;;;4934909;29;20457;-67
2022/11/30 11:39:39;;;;;;;50.28;27.48;;;8.00;99.90;;;;;;4934922;29;20047;-66
2022/11/30 11:42:05;;;;;;;44.03;25.52;;;8.00;99.90;;;;;;4934810;29;20047;-66
2022/11/30 11:44:32;;;;;;;43.38;27.20;;;8.10;99.90;;;;;;4934785;29;20086;-66
2022/11/30 11:47:01;;;;;;;45.78;26.50;;;8.10;99.90;;;;;;4934217;29;20047;-67
2022/11/30 11:49:30;;;;;;;47.63;25.00;;;8.20;99.90;;;;;;4934703;29;20047;-66
2022/11/30 11:52:05;;;;;;;41.45;24.73;;;8.10;99.90;;;;;;4951987;29;20393;-67
2022/11/30 11:54:48;;;;;;;42.80;25.33;;;8.10;99.90;;;;;;4934833;29;20051;-66
2022/11/30 11:57:16;;;;;;;43.97;24.42;;;8.10;99.90;;;;;;4919089;29;20039;-66
2022/11/30 12:00:04;;;;;;;43.88;25.25;;;8.10;99.90;;;;;;4934315;29;20107;-66
2022/11/30 12:02:38;;;;;;;44.55;25.17;;;8.10;99.90;;;;;;4951093;29;20043;-66
2022/11/30 12:05:15;;;;;;;38.30;22.80;;;8.10;99.90;;;;;;4933799;29;20502;-67
2022/11/30 12:07:53;;;;;;;42.60;24.70;;;8.20;99.90;;;;;;4951006;29;20118;-66
2022/11/30 12:10:48;;;;;;;41.13;23.27;;;8.10;99.90;;;;;;4933849;29;20126;-66
2022/11/30 12:13:26;;;;;;;38.55;22.33;;;8.10;99.90;;;;;;4950794;29;20043;-67
2022/11/30 12:16:15;;;;;;;38.22;22.67;;;8.10;99.90;;;;;;4934083;29;20126;-67
2022/11/30 12:19:13;;;;;;;44.50;23.33;;;8.00;99.90;;;;;;4933967;29;20051;-66
2022/11/30 12:22:06;;;;;;;47.35;24.55;;;8.00;99.90;;;;;;4951332;29;20561;-66
2022/11/30 12:24:55;;;;;;;39.42;24.65;;;7.90;99.90;;;;;;4951436;29;20074;-66
2022/11/30 12:28:06;;;;;;;43.78;23.73;;;7.90;99.90;;;;;;4839377;29;20053;-66
2022/11/30 12:31:02;;;;;;;44.53;24.65;;;7.90;99.90;;;;;;4850110;29;20050;-66
2022/11/30 12:33:48;;;;;;;46.08;25.27;;;7.90;99.90;;;;;;4839459;29;20501;-66
2022/11/30 12:36:26;;;;;;;49.15;25.27;;;7.90;99.90;;;;;;4839553;29;20073;-66
2022/11/30 12:39:06;;;;;;;51.28;27.15;;;7.90;99.90;;;;;;4824277;29;20053;-66
2022/11/30 12:42:19;;;;;;;46.73;24.73;;;7.90;99.90;;;;;;4823945;29;20129;-66
2022/11/30 12:45:06;;;;;;;40.03;24.08;;;7.90;99.90;;;;;;4812941;29;20058;-66
2022/11/30 12:47:58;;;;;;;43.70;24.55;;;7.90;99.90;;;;;;4836359;29;20061;-66
2022/11/30 12:50:48;;;;;;;42.05;23.25;;;7.90;99.90;;;;;;4837644;29;20046;-66
2022/11/30 12:53:57;;;;;;;42.70;23.38;;;7.90;99.90;;;;;;4823613;29;20041;-66
2022/11/30 12:56:35;;;;;;;46.07;24.50;;;7.80;99.90;;;;;;4834799;29;20166;-67